Data for 08/26/2006

Time Sea-Level Adjusted Pressure Absolute Pressure Temperature Relative Humidity Dew Point   
(mb) (inHg) (mb) (inHg) (C) (F) (%) (C) (F)
00:05 1020 30.12 849 25.07 14.5 58.1 58 6.3 43.3
00:10 1020 30.12 849 25.07 14.4 57.9 59 6.6 43.8
00:15 1020 30.12 849 25.07 14.3 57.7 60 6.7 44.1
00:20 1020 30.12 849 25.07 14.2 57.5 60 6.7 44.1
00:25 1020 30.12 849 25.07 14.1 57.4 59 6.2 43.2
00:30 1020 30.12 849 25.07 14.1 57.4 58 6.1 42.9
00:35 1020 30.12 849 25.07 14 57.3 58 6 42.8
00:40 1020 30.12 849 25.07 13.9 57.1 58 5.9 42.6
00:45 1020 30.12 849 25.07 13.9 57 58 5.9 42.6
00:50 1020 30.12 849 25.07 13.9 57 58 5.9 42.7
00:55 1020 30.12 849 25.07 13.8 56.9 59 5.9 42.6
01:00 1020 30.12 849 25.07 13.8 56.9 58 5.8 42.5
01:05 1020 30.12 849 25.07 13.8 56.8 58 5.7 42.2
01:10 1020 30.12 849 25.07 13.8 56.9 57 5.5 41.9
01:15 1020 30.12 849 25.07 13.9 57 56 5.2 41.4
01:20 1020 30.12 849 25.07 13.9 56.9 55 5 40.9
01:25 1020 30.12 849 25.07 13.9 56.9 55 5.1 41.1
01:30 1020 30.12 849 25.07 13.8 56.8 55 4.9 40.7
01:35 1020 30.12 849 25.07 13.7 56.7 55 4.9 40.7
01:40 1020 30.12 849 25.07 13.7 56.7 54 4.7 40.5
01:45 1020 30.12 849 25.07 13.7 56.6 54 4.7 40.4
01:50 1020 30.12 849 25.07 13.6 56.5 55 4.7 40.5
01:55 1020 30.12 849 25.07 13.6 56.4 55 4.6 40.4
02:00 1020 30.12 849 25.07 13.6 56.4 54 4.6 40.3
02:05 1020 30.12 849 25.07 13.5 56.3 53 4.3 39.7
02:10 1020 30.12 850 25.1 13.5 56.3 55 4.7 40.4
02:15 1020 30.12 850 25.1 13.4 56.1 55 4.6 40.4
02:20 1020 30.12 849 25.07 13.3 55.9 56 4.9 40.7
02:25 1020 30.12 849 25.07 13.1 55.6 57 4.9 40.9
02:30 1020 30.12 849 25.07 13 55.5 57 4.8 40.7
02:35 1020 30.12 849 25.07 13 55.4 57 4.9 40.7
02:40 1020 30.12 849 25.07 12.9 55.3 57 4.7 40.5
02:45 1020 30.12 849 25.07 12.9 55.2 57 4.5 40.2
02:50 1020 30.12 849 25.07 12.9 55.1 57 4.6 40.3
02:55 1020 30.12 849 25.07 12.8 55 57 4.6 40.3
03:00 1020 30.12 849 25.07 12.7 54.8 58 4.7 40.4
03:05 1020 30.12 849 25.07 12.6 54.7 58 4.6 40.3
03:10 1020 30.12 849 25.07 12.6 54.7 59 4.8 40.6
03:15 1020 30.12 849 25.07 12.6 54.6 59 4.9 40.8
03:20 1020 30.12 849 25.07 12.5 54.6 60 5 41
03:25 1020 30.12 849 25.07 12.5 54.4 60 5 41
03:30 1020 30.12 849 25.07 12.5 54.4 60 5 41
03:35 1020 30.12 849 25.07 12.4 54.2 60 5 40.9
03:40 1020 30.12 849 25.07 12.3 54.2 60 4.8 40.6
03:45 1020 30.12 849 25.07 12.3 54.2 60 4.7 40.5
03:50 1020 30.12 849 25.07 12.3 54.2 59 4.7 40.4
03:55 1020 30.12 849 25.07 12.4 54.3 59 4.7 40.5
04:00 1020 30.12 849 25.07 12.3 54.2 59 4.7 40.5
04:05 1020 30.12 849 25.07 12.3 54.2 59 4.7 40.4
04:10 1020 30.12 849 25.07 12.3 54.2 59 4.6 40.2
04:15 1020 30.12 849 25.07 12.3 54.1 59 4.6 40.3
04:20 1020 30.12 849 25.07 12.2 54 60 4.7 40.4
04:25 1020 30.12 849 25.07 12.1 53.9 61 4.8 40.6
04:30 1020 30.12 849 25.07 12.1 53.8 61 4.8 40.7
04:35 1020 30.12 850 25.1 12.1 53.8 61 4.7 40.5
04:40 1020 30.12 850 25.1 12.1 53.8 60 4.7 40.5
04:45 1020 30.12 850 25.1 12.2 53.9 59 4.5 40
04:50 1020 30.12 850 25.1 12.3 54.2 58 4.4 39.9
04:55 1020 30.12 850 25.1 12.4 54.3 57 4.2 39.6
05:00 1020 30.12 850 25.1 12.4 54.3 58 4.3 39.8
05:05 1021 30.15 850 25.1 12.4 54.3 58 4.3 39.8
05:10 1021 30.15 850 25.1 12.3 54.2 57 4.2 39.5
05:15 1021 30.15 850 25.1 12.4 54.3 57 4.2 39.6
05:20 1021 30.15 850 25.1 12.4 54.3 57 4.1 39.4
05:25 1021 30.15 850 25.1 12.3 54.2 58 4.4 39.9
05:30 1021 30.15 850 25.1 11.9 53.5 60 4.4 40
05:35 1021 30.15 850 25.1 11.6 52.9 62 4.6 40.3
05:40 1021 30.15 850 25.1 11.4 52.5 62 4.5 40.1
05:45 1021 30.15 850 25.1 11.3 52.3 63 4.6 40.2
05:50 1021 30.15 850 25.1 11.2 52.2 63 4.6 40.2
05:55 1020 30.12 850 25.1 11.1 52.1 63 4.4 40
06:00 1020 30.12 850 25.1 11.2 52.2 63 4.6 40.2
06:05 1020 30.12 850 25.1 11.3 52.3 63 4.5 40.1
06:10 1021 30.15 850 25.1 11.4 52.6 62 4.4 39.9
06:15 1020 30.12 850 25.1 11.6 52.8 62 4.5 40.1
06:20 1020 30.12 850 25.1 11.4 52.5 62 4.4 40
06:25 1021 30.15 850 25.1 11.4 52.6 62 4.4 39.9
06:30 1021 30.15 850 25.1 11.4 52.5 62 4.4 39.9
06:35 1021 30.15 850 25.1 11.2 52.2 62 4.3 39.7
06:40 1021 30.15 850 25.1 11.3 52.3 62 4.2 39.6
06:45 1021 30.15 850 25.1 11.4 52.4 61 4.2 39.5
06:50 1021 30.15 850 25.1 11.4 52.4 61 4.1 39.4
06:55 1021 30.15 850 25.1 11.4 52.5 61 4.3 39.7
07:00 1021 30.15 850 25.1 11.2 52.1 62 4.3 39.8
07:05 1021 30.15 850 25.1 11 51.7 63 4.3 39.7
07:10 1021 30.15 850 25.1 11.1 51.9 62 4.1 39.4
07:15 1021 30.15 850 25.1 11.2 52.2 62 4.2 39.6
07:20 1021 30.15 850 25.1 11.3 52.3 62 4.3 39.7
07:25 1021 30.15 850 25.1 11.2 52.1 63 4.4 39.9
07:30 1021 30.15 850 25.1 11.2 52.1 61 4.1 39.3
07:35 1021 30.15 850 25.1 11.4 52.5 63 4.6 40.2
07:40 1021 30.15 850 25.1 11.4 52.6 63 4.6 40.3
07:45 1021 30.15 850 25.1 11.5 52.7 65 5.1 41.2
07:50 1021 30.15 850 25.1 11.2 52.2 69 5.7 42.3
07:55 1021 30.15 850 25.1 11.1 52 68 5.5 41.9
08:00 1021 30.15 850 25.1 11.3 52.4 67 5.4 41.8
08:05 1021 30.15 850 25.1 11.3 52.4 72 6.6 43.9
08:10 1021 30.15 850 25.1 11.2 52.1 73 6.5 43.7
08:15 1021 30.15 850 25.1 11.3 52.3 72 6.5 43.7
08:20 1021 30.15 850 25.1 11.5 52.7 70 6.2 43.2
08:25 1021 30.15 850 25.1 11.7 53 71 6.6 43.8
08:30 1021 30.15 850 25.1 11.8 53.2 69 6.4 43.5
08:35 1021 30.15 850 25.1 11.6 52.8 73 6.9 44.5
08:40 1021 30.15 850 25.1 11.5 52.7 69 6.1 43
08:45 1021 30.15 850 25.1 11.8 53.2 69 6.3 43.4
08:50 1021 30.15 850 25.1 12 53.7 68 6.3 43.4
08:55 1021 30.15 850 25.1 12.2 54 67 6.4 43.5
09:00 1021 30.15 850 25.1 12.5 54.4 66 6.3 43.3
09:05 1021 30.15 850 25.1 12.7 54.8 66 6.6 43.9
09:10 1021 30.15 850 25.1 12.9 55.2 68 7.2 44.9
09:15 1021 30.15 850 25.1 13.1 55.5 65 6.6 43.8
09:20 1021 30.15 850 25.1 13.4 56.1 63 6.6 43.9
09:25 1021 30.15 850 25.1 13.5 56.3 64 6.9 44.5
09:30 1021 30.15 850 25.1 13.5 56.3 63 6.6 43.9
09:35 1021 30.15 850 25.1 14 57.1 56 5.5 41.9
09:40 1021 30.15 850 25.1 14.4 58 56 5.8 42.4
09:45 1021 30.15 850 25.1 14.8 58.6 52 5.2 41.3
09:50 1021 30.15 850 25.1 15 58.9 55 6.1 42.9
09:55 1021 30.15 850 25.1 15 59 58 6.8 44.2
10:00 1021 30.15 850 25.1 15.5 59.9 54 6.3 43.3
10:05 1021 30.15 850 25.1 15.9 60.5 58 7.8 46
10:10 1021 30.15 850 25.1 15.9 60.5 55 6.9 44.5
10:15 1021 30.15 850 25.1 16 60.8 55 7 44.5
10:20 1021 30.15 850 25.1 16 60.8 53 6.6 43.9
10:25 1021 30.15 850 25.1 16.1 61 54 6.9 44.5
10:30 1021 30.15 850 25.1 15.8 60.5 56 7.2 45
10:35 1021 30.15 850 25.1 15.7 60.2 55 6.8 44.3
10:40 1021 30.15 850 25.1 16 60.7 53 6.6 43.8
10:45 1021 30.15 850 25.1 16.3 61.3 52 6.5 43.8
10:50 1021 30.15 850 25.1 16.5 61.7 52 6.6 43.8
10:55 1021 30.15 850 25.1 16.8 62.2 51 6.7 44.1
11:00 1021 30.15 850 25.1 17.3 63.1 49 6.7 44
11:05 1021 30.15 850 25.1 17.5 63.5 49 6.8 44.3
11:10 1021 30.15 850 25.1 17.6 63.6 49 6.9 44.4
11:15 1021 30.15 850 25.1 17.6 63.7 50 7.1 44.7
11:20 1021 30.15 850 25.1 17.7 63.8 48 6.6 43.9
11:25 1021 30.15 850 25.1 18.2 64.7 47 6.8 44.2
11:30 1021 30.15 850 25.1 17.9 64.2 48 6.8 44.3
11:35 1021 30.15 850 25.1 18 64.4 47 6.6 43.9
11:40 1021 30.15 850 25.1 18.4 65.2 47 7 44.6
11:45 1021 30.15 850 25.1 18.3 64.9 45 6.3 43.4
11:50 1021 30.15 850 25.1 17.6 63.7 48 6.6 43.9
11:55 1021 30.15 850 25.1 18.6 65.4 44 6.4 43.5
12:00 1021 30.15 850 25.1 19.1 66.3 44 6.5 43.8
12:05 1021 30.15 850 25.1 19.5 67 44 7 44.5
12:10 1021 30.15 850 25.1 19.5 67.1 43 6.8 44.2
12:15 1021 30.15 850 25.1 19.8 67.6 43 6.8 44.3
12:20 1021 30.15 850 25.1 20 68 43 7 44.7
12:25 1021 30.15 850 25.1 20 68 42 6.9 44.5
12:30 1020 30.12 850 25.1 20 68 41 6.6 44
12:35 1020 30.12 850 25.1 20 68 42 7 44.7
12:40 1020 30.12 849 25.07 19.9 67.9 43 7.2 45
12:45 1020 30.12 849 25.07 19.5 67.1 43 6.6 43.8
12:50 1020 30.12 849 25.07 20 68 42 6.9 44.5
12:55 1020 30.12 849 25.07 19.8 67.7 42 6.6 43.9
13:00 1020 30.12 849 25.07 21 69.7 39 6.6 43.8
13:05 1020 30.12 849 25.07 20.1 68.1 42 7 44.7
13:10 1020 30.12 849 25.07 19.8 67.7 42 6.5 43.8
13:15 1020 30.12 849 25.07 20.9 69.7 39 6.7 44.1
13:20 1020 30.12 849 25.07 21.2 70.2 41 7.5 45.5
13:25 1020 30.12 849 25.07 21.7 71 39 7.3 45.2
13:30 1020 30.12 849 25.07 21.8 71.2 38 7 44.5
13:35 1020 30.12 849 25.07 20.9 69.6 42 7.8 46
13:40 1020 30.12 849 25.07 21.1 69.9 40 7 44.6
13:45 1020 30.12 849 25.07 20.4 68.7 42 7.2 44.9
13:50 1020 30.12 849 25.07 21.4 70.6 39 6.9 44.4
13:55 1020 30.12 849 25.07 21.1 69.9 41 7.6 45.7
14:00 1020 30.12 849 25.07 21.3 70.3 38 6.7 44
14:05 1020 30.12 849 25.07 21.9 71.4 37 6.7 44.1
14:10 1020 30.12 849 25.07 22 71.5 37 6.7 44.1
14:15 1020 30.12 849 25.07 22.7 72.9 36 7.1 44.8
14:20 1020 30.12 849 25.07 23.2 73.8 34 6.7 44.1
14:25 1020 30.12 849 25.07 23.6 74.5 34 7.1 44.8
14:30 1019 30.09 849 25.07 23 73.4 36 7.3 45.2
14:35 1019 30.09 849 25.07 23.2 73.7 35 6.9 44.4
14:40 1019 30.09 849 25.07 23.9 75 34 7.2 44.9
14:45 1019 30.09 849 25.07 24.1 75.5 34 7.4 45.3
14:50 1019 30.09 849 25.07 23.2 73.7 35 7.1 44.8
14:55 1019 30.09 849 25.07 21.9 71.4 38 7.2 45
15:00 1019 30.09 849 25.07 22.4 72.2 37 7 44.6
15:05 1019 30.09 849 25.07 22.3 72.2 36 6.8 44.2
15:10 1019 30.09 848 25.04 22.4 72.3 36 6.8 44.3
15:15 1019 30.09 848 25.04 23 73.4 34 6.4 43.6
15:20 1019 30.09 848 25.04 22.9 73.1 36 7.2 45
15:25 1019 30.09 848 25.04 23.3 73.9 35 7 44.5
15:30 1019 30.09 848 25.04 22.1 71.8 36 6.5 43.7
15:35 1019 30.09 848 25.04 22.2 71.9 37 6.9 44.4
15:40 1019 30.09 848 25.04 22.2 72 35 6.1 43
15:45 1019 30.09 848 25.04 23.1 73.5 32 5.8 42.5
15:50 1019 30.09 848 25.04 23.3 73.9 33 6.4 43.5
15:55 1019 30.09 848 25.04 23.5 74.3 33 6.6 43.8
16:00 1019 30.09 848 25.04 23.9 74.9 31 6 42.9
16:05 1019 30.09 848 25.04 23.9 75 33 6.7 44
16:10 1019 30.09 848 25.04 24 75.2 31 6.2 43.1
16:15 1019 30.09 848 25.04 24.4 76 32 6.7 44.1
16:20 1019 30.09 848 25.04 24.2 75.5 31 6.4 43.5
16:25 1019 30.09 848 25.04 23.6 74.5 32 6.1 43
16:30 1019 30.09 848 25.04 24 75.2 31 5.8 42.5
16:35 1019 30.09 848 25.04 24 75.1 32 6.4 43.6
16:40 1019 30.09 848 25.04 23.1 73.7 32 5.8 42.5
16:45 1019 30.09 848 25.04 23.9 75.1 31 6 42.9
16:50 1019 30.09 848 25.04 24.4 75.9 29 5.5 41.9
16:55 1019 30.09 848 25.04 24.6 76.3 29 5.5 41.9
17:00 1019 30.09 848 25.04 24.1 75.4 30 5.6 42.1
17:05 1019 30.09 848 25.04 24.3 75.7 29 5.5 41.8
17:10 1019 30.09 848 25.04 23.9 74.9 30 5.6 42
17:15 1019 30.09 848 25.04 23.2 73.8 32 5.6 42.1
17:20 1019 30.09 848 25.04 23.9 75 29 5.2 41.4
17:25 1019 30.09 848 25.04 23.5 74.3 30 5.2 41.4
17:30 1019 30.09 848 25.04 23.7 74.6 29 4.8 40.6
17:35 1019 30.09 848 25.04 24.3 75.7 28 4.8 40.6
17:40 1019 30.09 848 25.04 23.8 74.9 30 5.2 41.4
17:45 1019 30.09 848 25.04 23.8 74.9 29 5 40.9
17:50 1019 30.09 848 25.04 24.7 76.5 28 5.3 41.5
17:55 1019 30.09 848 25.04 24.7 76.4 29 5.8 42.4
18:00 1019 30.09 848 25.04 24.8 76.6 28 5.5 41.8
18:05 1019 30.09 848 25.04 24.8 76.6 29 5.6 42.1
18:10 1019 30.09 848 25.04 24.4 76 29 5.5 41.8
18:15 1019 30.09 848 25.04 23.9 75 30 5.4 41.8
18:20 1019 30.09 848 25.04 23.1 73.6 30 5 41.1
18:25 1019 30.09 848 25.04 23.1 73.6 30 4.8 40.7
18:30 1019 30.09 848 25.04 23.6 74.5 29 4.9 40.8
18:35 1019 30.09 848 25.04 24.1 75.3 29 5.1 41.2
18:40 1019 30.09 848 25.04 24 75.2 30 5.5 41.8
18:45 1019 30.09 848 25.04 23.2 73.8 30 5 41
18:50 1019 30.09 848 25.04 23.3 74 31 5.4 41.6
18:55 1019 30.09 848 25.04 23.5 74.2 30 5.4 41.6
19:00 1019 30.09 848 25.04 23.1 73.6 34 6.4 43.6
19:05 1019 30.09 848 25.04 22.5 72.5 35 6.3 43.3
19:10 1019 30.09 848 25.04 21.9 71.5 35 6 42.8
19:15 1019 30.09 848 25.04 21.7 71.1 37 6.6 43.9
19:20 1019 30.09 848 25.04 21.7 71 36 6.3 43.3
19:25 1019 30.09 848 25.04 21.6 70.8 38 6.8 44.3
19:30 1019 30.09 848 25.04 21.3 70.4 40 7.2 45
19:35 1019 30.09 848 25.04 20.9 69.6 41 7.4 45.2
19:40 1019 30.09 848 25.04 20.6 69 43 7.6 45.6
19:45 1019 30.09 848 25.04 20.3 68.6 43 7.6 45.7
19:50 1019 30.09 848 25.04 20.2 68.4 44 7.7 45.8
19:55 1019 30.09 848 25.04 20.1 68.2 43 7.5 45.4
20:00 1019 30.09 848 25.04 20 67.9 44 7.3 45.2
20:05 1019 30.09 848 25.04 19.8 67.6 44 7.5 45.4
20:10 1019 30.09 849 25.07 19.6 67.2 45 7.5 45.5
20:15 1019 30.09 849 25.07 19.4 66.9 46 7.6 45.6
20:20 1019 30.09 849 25.07 19.2 66.5 46 7.5 45.5
20:25 1019 30.09 849 25.07 19 66.2 47 7.6 45.7
20:30 1019 30.09 849 25.07 18.9 65.9 48 7.6 45.8
20:35 1020 30.12 849 25.07 18.7 65.7 49 7.8 46
20:40 1020 30.12 849 25.07 18.5 65.3 49 7.7 45.9
20:45 1020 30.12 849 25.07 18.4 65.1 49 7.6 45.7
20:50 1020 30.12 849 25.07 18.4 65 49 7.6 45.6
20:55 1020 30.12 849 25.07 18.2 64.8 50 7.8 46
21:00 1020 30.12 849 25.07 18.1 64.5 50 7.7 45.9
21:05 1020 30.12 849 25.07 17.9 64.2 51 7.8 46.1
21:10 1020 30.12 849 25.07 17.7 63.9 51 7.6 45.8
21:15 1020 30.12 849 25.07 17.7 63.8 51 7.7 45.8
21:20 1020 30.12 849 25.07 17.6 63.6 52 7.7 45.9
21:25 1020 30.12 849 25.07 17.5 63.5 52 7.5 45.6
21:30 1020 30.12 849 25.07 17.4 63.3 52 7.6 45.7
21:35 1020 30.12 849 25.07 17.2 63 53 7.6 45.6
21:40 1020 30.12 849 25.07 17.2 62.9 53 7.5 45.5
21:45 1020 30.12 849 25.07 17 62.6 53 7.6 45.6
21:50 1020 30.12 849 25.07 16.8 62.2 54 7.6 45.6
21:55 1020 30.12 849 25.07 16.7 62 55 7.7 45.8
22:00 1020 30.12 849 25.07 16.5 61.6 56 7.7 45.9
22:05 1020 30.12 849 25.07 16.3 61.4 56 7.5 45.6
22:10 1020 30.12 849 25.07 16.3 61.3 56 7.5 45.4
22:15 1020 30.12 849 25.07 16.4 61.5 55 7.3 45.1
22:20 1020 30.12 849 25.07 16.7 62 53 7.2 45
22:25 1020 30.12 849 25.07 16.6 61.9 54 7.3 45.2
22:30 1020 30.12 849 25.07 16.4 61.5 55 7.4 45.3
22:35 1020 30.12 849 25.07 16.3 61.3 55 7.3 45.2
22:40 1020 30.12 849 25.07 16.1 61 56 7.3 45.1
22:45 1020 30.12 849 25.07 16.1 61 56 7.4 45.3
22:50 1020 30.12 849 25.07 15.9 60.7 56 7.4 45.2
22:55 1020 30.12 849 25.07 15.9 60.6 55 7 44.7
23:00 1020 30.12 849 25.07 15.9 60.5 56 7.2 44.9
23:05 1020 30.12 850 25.1 15.7 60.3 56 7.1 44.7
23:10 1020 30.12 850 25.1 15.7 60.2 56 7.1 44.8
23:15 1020 30.12 850 25.1 15.7 60.3 56 7.1 44.8
23:20 1020 30.12 850 25.1 15.7 60.2 57 7.3 45.1
23:25 1020 30.12 850 25.1 15.5 59.9 59 7.6 45.8
23:30 1020 30.12 850 25.1 15.3 59.5 58 7.3 45.1
23:35 1020 30.12 850 25.1 15.1 59.3 59 7.3 45.1
23:40 1020 30.12 850 25.1 15 59.1 63 8.2 46.8
23:45 1020 30.12 850 25.1 14.7 58.5 61 7.4 45.4
23:50 1020 30.12 850 25.1 14.6 58.4 62 7.5 45.5
23:55 1020 30.12 850 25.1 14.8 58.6 60 7.2 45
24:00 1020 30.12 850 25.1 14.7 58.4 60 7 44.7